Time,TemperatureF,DewpointF,PressureIn,WindDirection,WindDirectionDegrees,WindSpeedMPH,WindSpeedGustMPH,Humidity,HourlyPrecipIn,Conditions,Clouds,dailyrainin,SoftwareType,DateUTC
2013-05-11 00:01:00,41.3,40.0,29.85,NNW,338,4.0,19.0,95,0.00,,---,0.35,VWS V14.01,2013-05-11 04:01:00,
2013-05-11 00:02:00,41.3,40.0,29.85,North,5,4.0,19.0,95,0.00,,---,0.35,VWS V14.01,2013-05-11 04:02:00,
2013-05-11 00:07:00,41.3,40.0,29.85,NNW,330,4.0,13.0,95,0.00,,---,0.00,VWS V14.01,2013-05-11 04:07:00,
2013-05-11 00:12:00,41.3,40.0,29.85,North,349,9.0,13.0,95,0.00,,---,0.00,VWS V14.01,2013-05-11 04:12:00,
2013-05-11 00:17:00,41.3,40.0,29.85,NNE,26,6.0,13.0,95,0.00,,---,0.00,VWS V14.01,2013-05-11 04:17:00,
2013-05-11 00:22:00,41.3,40.0,29.86,North,359,3.0,13.0,95,0.00,,---,0.00,VWS V14.01,2013-05-11 04:22:00,
2013-05-11 00:27:00,41.3,40.0,29.86,North,360,3.0,13.0,95,0.00,,---,0.00,VWS V14.01,2013-05-11 04:27:00,
2013-05-11 00:32:00,41.3,40.0,29.86,North,354,1.0,13.0,95,0.00,,---,0.00,VWS V14.01,2013-05-11 04:32:00,
2013-05-11 00:37:00,41.4,40.1,29.86,WNW,294,2.0,13.0,95,0.00,,---,0.00,VWS V14.01,2013-05-11 04:37:00,
2013-05-11 00:42:00,41.4,40.1,29.86,NNW,333,4.0,13.0,95,0.00,,---,0.00,VWS V14.01,2013-05-11 04:42:00,
2013-05-11 00:47:00,41.3,40.0,29.86,North,352,3.0,13.0,95,0.00,,---,0.00,VWS V14.01,2013-05-11 04:47:00,
2013-05-11 00:52:00,41.2,40.2,29.87,North,8,3.0,13.0,96,0.00,,---,0.00,VWS V14.01,2013-05-11 04:52:00,
2013-05-11 00:58:00,41.2,40.2,29.86,NE,36,7.0,13.0,96,0.00,,---,0.00,VWS V14.01,2013-05-11 04:58:00,
2013-05-11 01:03:00,41.2,40.2,29.86,NNW,338,5.0,6.0,96,0.00,,---,0.00,VWS V14.01,2013-05-11 05:03:00,
2013-05-11 01:08:00,41.2,40.2,29.86,NNE,12,2.0,10.0,96,0.00,,---,0.00,VWS V14.01,2013-05-11 05:08:00,
2013-05-11 01:13:00,41.2,40.2,29.86,NNW,338,4.0,10.0,96,0.00,,---,0.00,VWS V14.01,2013-05-11 05:13:00,
2013-05-11 01:18:00,41.2,40.2,29.86,NNE,15,2.0,10.0,96,0.00,,---,0.00,VWS V14.01,2013-05-11 05:18:00,
2013-05-11 01:23:00,41.3,40.2,29.86,NNW,338,2.0,10.0,96,0.00,,---,0.00,VWS V14.01,2013-05-11 05:23:00,
2013-05-11 01:28:00,41.3,40.5,29.86,NNW,344,5.0,10.0,97,0.00,,---,0.00,VWS V14.01,2013-05-11 05:28:00,
2013-05-11 01:33:00,41.3,40.5,29.86,NW,318,2.0,10.0,97,0.00,,---,0.00,VWS V14.01,2013-05-11 05:33:00,
2013-05-11 01:38:00,41.4,40.6,29.86,North,356,6.0,11.0,97,0.00,,---,0.00,VWS V14.01,2013-05-11 05:38:00,
2013-05-11 01:43:00,41.5,40.7,29.86,NNW,329,1.0,11.0,97,0.00,,---,0.00,VWS V14.01,2013-05-11 05:43:00,
2013-05-11 01:49:00,41.6,40.8,29.86,North,6,1.0,11.0,97,0.00,,---,0.00,VWS V14.01,2013-05-11 05:49:00,
2013-05-11 01:54:00,41.6,40.8,29.86,NNE,27,4.0,11.0,97,0.00,,---,0.00,VWS V14.01,2013-05-11 05:54:00,
2013-05-11 01:59:00,41.6,40.8,29.85,North,350,6.0,11.0,97,0.00,,---,0.00,VWS V14.01,2013-05-11 05:59:00,
2013-05-11 02:04:00,41.6,40.8,29.85,NE,34,7.0,10.0,97,0.00,,---,0.00,VWS V14.01,2013-05-11 06:04:00,
2013-05-11 02:09:00,41.6,40.8,29.85,NNE,23,5.0,10.0,97,0.00,,---,0.00,VWS V14.01,2013-05-11 06:09:00,
2013-05-11 02:14:00,41.5,40.7,29.85,NNW,342,2.0,10.0,97,0.00,,---,0.00,VWS V14.01,2013-05-11 06:14:00,
2013-05-11 02:19:00,41.5,40.7,29.85,NNW,338,6.0,13.0,97,0.00,,---,0.00,VWS V14.01,2013-05-11 06:19:00,
2013-05-11 02:24:00,41.4,40.6,29.85,NW,305,4.0,13.0,97,0.00,,---,0.00,VWS V14.01,2013-05-11 06:24:00,
2013-05-11 02:29:00,41.4,40.6,29.85,NW,308,4.0,13.0,97,0.00,,---,0.00,VWS V14.01,2013-05-11 06:29:00,
2013-05-11 02:34:00,41.3,40.5,29.86,North,6,3.0,13.0,97,0.00,,---,0.00,VWS V14.01,2013-05-11 06:34:00,
2013-05-11 02:39:00,41.3,40.5,29.86,NW,322,3.0,13.0,97,0.00,,---,0.00,VWS V14.01,2013-05-11 06:39:00,
2013-05-11 02:44:00,41.3,40.5,29.86,WNW,300,6.0,13.0,97,0.00,,---,0.00,VWS V14.01,2013-05-11 06:44:00,
2013-05-11 02:50:00,41.2,40.4,29.85,NW,317,2.0,13.0,97,0.00,,---,0.00,VWS V14.01,2013-05-11 06:50:00,
2013-05-11 02:55:00,41.2,40.4,29.86,NW,315,8.0,13.0,97,0.00,,---,0.00,VWS V14.01,2013-05-11 06:55:00,
2013-05-11 03:00:00,41.2,40.4,29.85,NNW,333,4.0,13.0,97,0.00,,---,0.00,VWS V14.01,2013-05-11 07:00:00,
2013-05-11 03:05:00,41.2,40.2,29.85,NW,314,6.0,8.0,96,0.00,,---,0.00,VWS V14.01,2013-05-11 07:05:00,
2013-05-11 03:10:00,41.2,40.4,29.86,NW,326,4.0,8.0,97,0.00,,---,0.00,VWS V14.01,2013-05-11 07:10:00,
2013-05-11 03:15:00,41.2,40.2,29.86,NNW,336,1.0,8.0,96,0.00,,---,0.00,VWS V14.01,2013-05-11 07:15:00,
2013-05-11 03:20:00,41.3,40.2,29.86,NW,306,2.0,8.0,96,0.00,,---,0.00,VWS V14.01,2013-05-11 07:20:00,
2013-05-11 03:25:00,41.2,40.2,29.86,NW,323,2.0,8.0,96,0.00,,---,0.00,VWS V14.01,2013-05-11 07:25:00,
2013-05-11 03:30:00,41.2,40.2,29.86,NW,326,5.0,9.0,96,0.00,,---,0.00,VWS V14.01,2013-05-11 07:30:00,
2013-05-11 03:35:00,41.3,40.2,29.86,WNW,296,3.0,9.0,96,0.00,,---,0.00,VWS V14.01,2013-05-11 07:35:00,
2013-05-11 03:41:00,41.2,40.2,29.86,North,356,2.0,10.0,96,0.00,,---,0.00,VWS V14.01,2013-05-11 07:41:00,
2013-05-11 03:46:00,41.3,40.2,29.86,North,360,3.0,10.0,96,0.00,,---,0.00,VWS V14.01,2013-05-11 07:46:00,
2013-05-11 03:51:00,41.3,40.2,29.86,WNW,300,3.0,10.0,96,0.00,,---,0.00,VWS V14.01,2013-05-11 07:51:00,
2013-05-11 03:56:00,41.3,40.2,29.86,WNW,287,5.0,10.0,96,0.00,,---,0.00,VWS V14.01,2013-05-11 07:56:00,
2013-05-11 04:01:00,41.3,40.2,29.86,NW,307,2.0,10.0,96,0.00,,---,0.00,VWS V14.01,2013-05-11 08:01:00,
2013-05-11 04:06:00,41.3,40.2,29.86,WNW,295,5.0,9.0,96,0.00,,---,0.00,VWS V14.01,2013-05-11 08:06:00,
2013-05-11 04:11:00,41.2,40.2,29.86,NW,311,5.0,9.0,96,0.00,,---,0.00,VWS V14.01,2013-05-11 08:11:00,
2013-05-11 04:16:00,41.1,40.0,29.87,NNW,336,6.0,9.0,96,0.00,,---,0.00,VWS V14.01,2013-05-11 08:16:00,
2013-05-11 04:21:00,41.1,40.0,29.87,NNW,333,2.0,9.0,96,0.00,,---,0.00,VWS V14.01,2013-05-11 08:21:00,
2013-05-11 04:26:00,41.2,40.2,29.87,NW,318,2.0,9.0,96,0.00,,---,0.00,VWS V14.01,2013-05-11 08:26:00,
2013-05-11 04:31:00,41.2,40.2,29.87,NW,321,5.0,9.0,96,0.00,,---,0.00,VWS V14.01,2013-05-11 08:31:00,
2013-05-11 04:37:00,41.3,40.2,29.87,NNW,346,2.0,9.0,96,0.00,,---,0.00,VWS V14.01,2013-05-11 08:37:00,
2013-05-11 04:42:00,41.3,40.2,29.87,NW,305,2.0,9.0,96,0.00,,---,0.00,VWS V14.01,2013-05-11 08:42:00,
2013-05-11 04:47:00,41.3,40.2,29.87,NNW,338,6.0,9.0,96,0.00,,---,0.00,VWS V14.01,2013-05-11 08:47:00,
2013-05-11 04:52:00,41.3,40.2,29.87,NW,321,3.0,9.0,96,0.00,,---,0.00,VWS V14.01,2013-05-11 08:52:00,
2013-05-11 04:57:00,41.3,40.2,29.87,West,276,2.0,9.0,96,0.00,,---,0.00,VWS V14.01,2013-05-11 08:57:00,
2013-05-11 05:02:00,41.3,40.2,29.87,WNW,293,6.0,6.0,96,0.00,,---,0.00,VWS V14.01,2013-05-11 09:02:00,
2013-05-11 05:07:00,41.3,40.2,29.87,NW,309,3.0,8.0,96,0.00,,---,0.00,VWS V14.01,2013-05-11 09:07:00,
2013-05-11 05:12:00,41.2,40.2,29.87,NW,318,3.0,8.0,96,0.00,,---,0.00,VWS V14.01,2013-05-11 09:12:00,
2013-05-11 05:17:00,41.3,40.2,29.87,NNW,332,2.0,8.0,96,0.00,,---,0.00,VWS V14.01,2013-05-11 09:17:00,
2013-05-11 05:22:00,41.3,40.2,29.87,NNW,347,1.0,8.0,96,0.00,,---,0.00,VWS V14.01,2013-05-11 09:22:00,
2013-05-11 05:27:00,41.3,40.2,29.87,NW,311,1.0,8.0,96,0.00,,---,0.00,VWS V14.01,2013-05-11 09:27:00,
2013-05-11 05:33:00,41.3,40.2,29.87,WNW,303,6.0,8.0,96,0.00,,---,0.00,VWS V14.01,2013-05-11 09:33:00,
2013-05-11 05:38:00,41.3,40.2,29.87,WNW,297,4.0,8.0,96,0.00,,---,0.00,VWS V14.01,2013-05-11 09:38:00,
2013-05-11 05:43:00,41.4,40.3,29.87,NW,314,3.0,8.0,96,0.00,,---,0.00,VWS V14.01,2013-05-11 09:43:00,
2013-05-11 05:48:00,41.4,40.3,29.87,NW,318,0.0,8.0,96,0.00,,---,0.00,VWS V14.01,2013-05-11 09:48:00,
2013-05-11 05:53:00,41.5,40.5,29.87,NNW,328,4.0,8.0,96,0.00,,---,0.00,VWS V14.01,2013-05-11 09:53:00,
2013-05-11 05:58:00,41.4,40.3,29.87,NW,312,3.0,9.0,96,0.00,,---,0.00,VWS V14.01,2013-05-11 09:58:00,
2013-05-11 06:03:00,41.5,40.5,29.87,West,274,5.0,9.0,96,0.00,,---,0.00,VWS V14.01,2013-05-11 10:03:00,
2013-05-11 06:08:00,41.5,40.5,29.87,WNW,288,5.0,10.0,96,0.00,,---,0.00,VWS V14.01,2013-05-11 10:08:00,
2013-05-11 06:13:00,41.5,40.5,29.87,NW,304,5.0,10.0,96,0.00,,---,0.00,VWS V14.01,2013-05-11 10:13:00,
2013-05-11 06:18:00,41.3,40.2,29.87,WNW,294,4.0,10.0,96,0.00,,---,0.00,VWS V14.01,2013-05-11 10:18:00,
2013-05-11 06:24:00,41.2,40.2,29.87,WNW,300,4.0,10.0,96,0.00,,---,0.00,VWS V14.01,2013-05-11 10:24:00,
2013-05-11 06:29:00,41.1,40.0,29.87,WNW,301,3.0,10.0,96,0.00,,---,0.00,VWS V14.01,2013-05-11 10:29:00,
2013-05-11 06:34:00,41.2,40.2,29.87,NNW,347,2.0,10.0,96,0.00,,---,0.00,VWS V14.01,2013-05-11 10:34:00,
2013-05-11 06:39:00,41.2,40.2,29.87,WNW,283,5.0,10.0,96,0.00,,---,0.00,VWS V14.01,2013-05-11 10:39:00,
2013-05-11 06:44:00,41.2,40.2,29.87,WNW,301,4.0,10.0,96,0.00,,---,0.00,VWS V14.01,2013-05-11 10:44:00,
2013-05-11 06:49:00,41.3,40.2,29.87,WNW,294,6.0,10.0,96,0.00,,---,0.00,VWS V14.01,2013-05-11 10:49:00,
2013-05-11 06:54:00,41.3,40.2,29.87,NW,304,5.0,10.0,96,0.00,,---,0.00,VWS V14.01,2013-05-11 10:54:00,
2013-05-11 06:59:00,41.5,40.5,29.87,West,278,3.0,10.0,96,0.00,,---,0.00,VWS V14.01,2013-05-11 10:59:00,
2013-05-11 07:04:00,41.5,40.2,29.87,NNW,336,1.0,7.0,95,0.00,,---,0.00,VWS V14.01,2013-05-11 11:04:00,
2013-05-11 07:09:00,41.6,40.3,29.87,NNE,15,7.0,7.0,95,0.00,,---,0.00,VWS V14.01,2013-05-11 11:09:00,
2013-05-11 07:14:00,41.7,40.4,29.87,WNW,300,4.0,11.0,95,0.00,,---,0.00,VWS V14.01,2013-05-11 11:14:00,
2013-05-11 07:20:00,41.8,40.5,29.87,NW,308,6.0,11.0,95,0.00,,---,0.00,VWS V14.01,2013-05-11 11:20:00,
2013-05-11 07:25:00,41.9,40.6,29.87,West,260,5.0,11.0,95,0.00,,---,0.00,VWS V14.01,2013-05-11 11:25:00,
2013-05-11 07:30:00,42.0,40.7,29.87,NW,304,5.0,11.0,95,0.00,,---,0.00,VWS V14.01,2013-05-11 11:30:00,
2013-05-11 07:35:00,42.2,40.9,29.86,NW,316,2.0,11.0,95,0.00,,---,0.00,VWS V14.01,2013-05-11 11:35:00,
2013-05-11 07:40:00,42.3,41.0,29.86,NW,309,5.0,11.0,95,0.00,,---,0.00,VWS V14.01,2013-05-11 11:40:00,
2013-05-11 07:45:00,42.4,41.1,29.87,NW,304,3.0,11.0,95,0.00,,---,0.00,VWS V14.01,2013-05-11 11:45:00,
2013-05-11 07:50:00,42.5,41.2,29.87,NW,304,4.0,11.0,95,0.00,,---,0.00,VWS V14.01,2013-05-11 11:50:00,
2013-05-11 07:55:00,42.6,41.3,29.87,NW,321,4.0,11.0,95,0.00,,---,0.00,VWS V14.01,2013-05-11 11:55:00,
2013-05-11 08:00:00,42.8,41.5,29.86,WNW,301,4.0,11.0,95,0.00,,---,0.00,VWS V14.01,2013-05-11 12:00:00,
2013-05-11 08:05:00,43.1,41.8,29.86,WNW,298,4.0,6.0,95,0.00,,---,0.00,VWS V14.01,2013-05-11 12:05:00,
2013-05-11 08:10:00,43.2,41.6,29.86,WNW,287,4.0,7.0,94,0.00,,---,0.00,VWS V14.01,2013-05-11 12:10:00,
2013-05-11 08:16:00,43.3,41.7,29.86,West,262,1.0,7.0,94,0.00,,---,0.00,VWS V14.01,2013-05-11 12:16:00,
2013-05-11 08:21:00,43.6,42.0,29.86,WNW,300,4.0,7.0,94,0.00,,---,0.00,VWS V14.01,2013-05-11 12:21:00,
2013-05-11 08:26:00,43.7,41.8,29.85,WNW,300,3.0,8.0,93,0.00,,---,0.00,VWS V14.01,2013-05-11 12:26:00,
2013-05-11 08:31:00,43.8,42.2,29.85,WNW,284,4.0,8.0,94,0.00,,---,0.00,VWS V14.01,2013-05-11 12:31:00,
2013-05-11 08:36:00,43.9,42.3,29.85,NW,315,2.0,8.0,94,0.00,,---,0.00,VWS V14.01,2013-05-11 12:36:00,
2013-05-11 08:41:00,44.1,42.5,29.85,NNW,328,6.0,8.0,94,0.00,,---,0.00,VWS V14.01,2013-05-11 12:41:00,
2013-05-11 08:46:00,44.1,42.2,29.85,West,280,2.0,8.0,93,0.00,,---,0.00,VWS V14.01,2013-05-11 12:46:00,
2013-05-11 08:51:00,44.1,42.5,29.85,NW,320,3.0,8.0,94,0.00,,---,0.00,VWS V14.01,2013-05-11 12:51:00,
2013-05-11 08:56:00,44.3,42.7,29.85,NW,306,3.0,8.0,94,0.00,,---,0.00,VWS V14.01,2013-05-11 12:56:00,
2013-05-11 09:01:00,44.4,42.5,29.85,WNW,284,5.0,8.0,93,0.00,,---,0.00,VWS V14.01,2013-05-11 13:01:00,
2013-05-11 09:07:00,44.4,42.5,29.86,WNW,296,6.0,9.0,93,0.00,,---,0.00,VWS V14.01,2013-05-11 13:07:00,
2013-05-11 09:12:00,44.3,42.7,29.86,WNW,290,3.0,9.0,94,0.00,,---,0.00,VWS V14.01,2013-05-11 13:12:00,
2013-05-11 09:17:00,44.4,42.8,29.86,WNW,300,5.0,9.0,94,0.00,,---,0.00,VWS V14.01,2013-05-11 13:17:00,
2013-05-11 09:22:00,44.5,42.9,29.86,NW,323,4.0,9.0,94,0.00,,---,0.00,VWS V14.01,2013-05-11 13:22:00,
2013-05-11 09:27:00,44.5,42.9,29.85,West,281,1.0,9.0,94,0.00,,---,0.00,VWS V14.01,2013-05-11 13:27:00,
2013-05-11 09:32:00,44.7,43.4,29.86,NW,305,6.0,9.0,95,0.00,,---,0.00,VWS V14.01,2013-05-11 13:32:00,
2013-05-11 09:37:00,44.7,43.4,29.85,NW,311,3.0,9.0,95,0.00,,---,0.00,VWS V14.01,2013-05-11 13:37:00,
2013-05-11 09:42:00,44.9,43.6,29.86,West,277,2.0,9.0,95,0.00,,---,0.00,VWS V14.01,2013-05-11 13:42:00,
2013-05-11 09:47:00,45.0,43.4,29.85,West,273,4.0,9.0,94,0.00,,---,0.00,VWS V14.01,2013-05-11 13:47:00,
2013-05-11 09:52:00,44.9,43.3,29.85,WNW,290,3.0,9.0,94,0.00,,---,0.00,VWS V14.01,2013-05-11 13:52:00,
2013-05-11 09:57:00,45.0,43.7,29.85,WSW,249,4.0,9.0,95,0.00,,---,0.00,VWS V14.01,2013-05-11 13:57:00,
2013-05-11 10:02:00,44.9,43.6,29.85,WNW,283,5.0,7.0,95,0.00,,---,0.00,VWS V14.01,2013-05-11 14:02:00,
2013-05-11 10:08:00,45.0,43.7,29.85,West,274,4.0,9.0,95,0.00,,---,0.00,VWS V14.01,2013-05-11 14:08:00,
2013-05-11 10:13:00,45.4,43.8,29.85,WSW,248,4.0,9.0,94,0.00,,---,0.00,VWS V14.01,2013-05-11 14:13:00,
2013-05-11 10:18:00,46.0,44.1,29.84,West,273,3.0,9.0,93,0.00,,---,0.00,VWS V14.01,2013-05-11 14:18:00,
2013-05-11 10:23:00,46.5,44.0,29.84,WNW,283,4.0,9.0,91,0.00,,---,0.00,VWS V14.01,2013-05-11 14:23:00,
2013-05-11 10:28:00,46.7,43.9,29.84,NW,307,4.0,9.0,90,0.00,,---,0.00,VWS V14.01,2013-05-11 14:28:00,
2013-05-11 10:33:00,47.0,44.2,29.84,NW,322,4.0,9.0,90,0.00,,---,0.00,VWS V14.01,2013-05-11 14:33:00,
2013-05-11 10:38:00,47.1,44.3,29.84,WSW,250,6.0,9.0,90,0.00,,---,0.00,VWS V14.01,2013-05-11 14:38:00,
2013-05-11 10:43:00,47.2,44.1,29.85,WSW,248,5.0,10.0,89,0.00,,---,0.00,VWS V14.01,2013-05-11 14:43:00,
2013-05-11 10:48:00,47.3,44.2,29.84,WNW,300,2.0,10.0,89,0.00,,---,0.00,VWS V14.01,2013-05-11 14:48:00,
2013-05-11 10:53:00,47.4,44.0,29.84,West,262,5.0,10.0,88,0.00,,---,0.00,VWS V14.01,2013-05-11 14:53:00,
2013-05-11 10:58:00,47.4,44.0,29.84,WNW,300,3.0,10.0,88,0.00,,---,0.00,VWS V14.01,2013-05-11 14:58:00,
2013-05-11 11:04:00,47.6,44.2,29.84,SW,236,4.0,4.0,88,0.00,,---,0.00,VWS V14.01,2013-05-11 15:04:00,
2013-05-11 11:09:00,47.8,44.7,29.84,WNW,284,4.0,7.0,89,0.00,,---,0.00,VWS V14.01,2013-05-11 15:09:00,
2013-05-11 11:14:00,47.9,44.5,29.84,WNW,284,4.0,9.0,88,0.00,,---,0.00,VWS V14.01,2013-05-11 15:14:00,
2013-05-11 11:19:00,48.0,44.6,29.84,West,266,3.0,9.0,88,0.00,,---,0.00,VWS V14.01,2013-05-11 15:19:00,
2013-05-11 11:24:00,48.1,44.4,29.84,WSW,250,7.0,9.0,87,0.00,,---,0.00,VWS V14.01,2013-05-11 15:24:00,
2013-05-11 11:29:00,48.1,44.4,29.84,West,267,3.0,9.0,87,0.00,,---,0.00,VWS V14.01,2013-05-11 15:29:00,
2013-05-11 11:34:00,48.3,44.6,29.83,WSW,250,7.0,9.0,87,0.00,,---,0.00,VWS V14.01,2013-05-11 15:34:00,
2013-05-11 11:39:00,48.2,44.8,29.84,West,274,2.0,9.0,88,0.00,,---,0.00,VWS V14.01,2013-05-11 15:39:00,
2013-05-11 11:44:00,48.3,44.9,29.83,WSW,256,3.0,9.0,88,0.00,,---,0.00,VWS V14.01,2013-05-11 15:44:00,
2013-05-11 11:49:00,48.5,44.8,29.83,WSW,249,4.0,9.0,87,0.00,,---,0.00,VWS V14.01,2013-05-11 15:49:00,
2013-05-11 11:55:00,48.6,45.2,29.83,West,259,4.0,9.0,88,0.00,,---,0.00,VWS V14.01,2013-05-11 15:55:00,
2013-05-11 12:00:00,48.9,45.5,29.83,SSW,211,10.0,10.0,88,0.00,,---,0.00,VWS V14.01,2013-05-11 16:00:00,
2013-05-11 12:05:00,49.2,45.2,29.83,WSW,239,9.0,11.0,86,0.00,,---,0.00,VWS V14.01,2013-05-11 16:05:00,
2013-05-11 12:10:00,49.7,45.7,29.83,SW,225,8.0,11.0,86,0.00,,---,0.00,VWS V14.01,2013-05-11 16:10:00,
2013-05-11 12:15:00,50.1,46.4,29.83,WSW,250,6.0,11.0,87,0.00,,---,0.00,VWS V14.01,2013-05-11 16:15:00,
2013-05-11 12:20:00,50.6,45.3,29.82,WSW,243,5.0,11.0,82,0.00,,---,0.00,VWS V14.01,2013-05-11 16:20:00,
2013-05-11 12:25:00,50.9,45.0,29.82,SW,217,4.0,11.0,80,0.00,,---,0.00,VWS V14.01,2013-05-11 16:25:00,
2013-05-11 12:30:00,51.1,45.5,29.82,SW,226,5.0,11.0,81,0.00,,---,0.00,VWS V14.01,2013-05-11 16:30:00,
2013-05-11 12:35:00,51.5,44.9,29.82,WSW,240,3.0,11.0,78,0.00,,---,0.00,VWS V14.01,2013-05-11 16:35:00,
2013-05-11 12:40:00,52.4,45.4,29.81,SSW,200,5.0,11.0,77,0.00,,---,0.00,VWS V14.01,2013-05-11 16:40:00,
2013-05-11 12:45:00,52.9,45.2,29.81,SSW,195,8.0,11.0,75,0.00,,---,0.00,VWS V14.01,2013-05-11 16:45:00,
2013-05-11 12:51:00,53.2,45.5,29.81,South,181,8.0,12.0,75,0.00,,---,0.00,VWS V14.01,2013-05-11 16:51:00,
2013-05-11 12:56:00,53.4,44.6,29.81,SE,145,1.0,12.0,72,0.00,,---,0.00,VWS V14.01,2013-05-11 16:56:00,
2013-05-11 13:01:00,53.9,46.2,29.81,SW,230,5.0,12.0,75,0.00,,---,0.00,VWS V14.01,2013-05-11 17:01:00,
2013-05-11 13:06:00,54.6,46.1,29.81,SW,216,9.0,10.0,73,0.00,,---,0.00,VWS V14.01,2013-05-11 17:06:00,
2013-05-11 13:11:00,54.7,45.5,29.80,SW,215,6.0,12.0,71,0.00,,---,0.00,VWS V14.01,2013-05-11 17:11:00,
2013-05-11 13:16:00,54.7,45.9,29.80,West,263,3.0,12.0,72,0.00,,---,0.00,VWS V14.01,2013-05-11 17:16:00,
2013-05-11 13:21:00,54.7,45.1,29.80,WSW,252,6.0,12.0,70,0.00,,---,0.00,VWS V14.01,2013-05-11 17:21:00,
2013-05-11 13:26:00,55.0,44.7,29.80,South,176,6.0,12.0,68,0.00,,---,0.00,VWS V14.01,2013-05-11 17:26:00,
2013-05-11 13:31:00,55.5,45.1,29.79,SE,145,3.0,13.0,68,0.00,,---,0.00,VWS V14.01,2013-05-11 17:31:00,
2013-05-11 13:36:00,56.0,46.0,29.79,SW,232,4.0,13.0,69,0.00,,---,0.00,VWS V14.01,2013-05-11 17:36:00,
2013-05-11 13:42:00,56.6,45.8,29.79,SSW,212,8.0,13.0,67,0.00,,---,0.00,VWS V14.01,2013-05-11 17:42:00,
2013-05-11 13:47:00,56.5,46.5,29.79,SW,217,9.0,13.0,69,0.00,,---,0.00,VWS V14.01,2013-05-11 17:47:00,
2013-05-11 13:52:00,56.5,44.9,29.78,SW,218,8.0,13.0,65,0.00,,---,0.00,VWS V14.01,2013-05-11 17:52:00,
2013-05-11 13:57:00,57.0,46.2,29.78,SW,233,5.0,13.0,67,0.00,,---,0.00,VWS V14.01,2013-05-11 17:57:00,
2013-05-11 14:02:00,57.0,45.0,29.78,WSW,252,6.0,8.0,64,0.00,,---,0.00,VWS V14.01,2013-05-11 18:02:00,
2013-05-11 14:07:00,57.0,45.0,29.78,SSW,211,6.0,11.0,64,0.00,,---,0.00,VWS V14.01,2013-05-11 18:07:00,
2013-05-11 14:12:00,57.2,45.2,29.78,SW,233,6.0,16.0,64,0.00,,---,0.00,VWS V14.01,2013-05-11 18:12:00,
2013-05-11 14:17:00,57.4,46.2,29.77,SW,233,6.0,16.0,66,0.00,,---,0.00,VWS V14.01,2013-05-11 18:17:00,
2013-05-11 14:22:00,57.4,44.9,29.77,SW,221,13.0,16.0,63,0.00,,---,0.00,VWS V14.01,2013-05-11 18:22:00,
2013-05-11 14:27:00,57.3,44.8,29.78,SW,225,8.0,16.0,63,0.00,,---,0.00,VWS V14.01,2013-05-11 18:27:00,
2013-05-11 14:32:00,57.4,44.5,29.77,SSW,198,7.0,16.0,62,0.00,,---,0.00,VWS V14.01,2013-05-11 18:32:00,
2013-05-11 14:38:00,57.8,46.1,29.77,West,263,9.0,16.0,65,0.00,,---,0.00,VWS V14.01,2013-05-11 18:38:00,
2013-05-11 14:43:00,58.3,44.9,29.77,SSW,204,6.0,16.0,61,0.00,,---,0.00,VWS V14.01,2013-05-11 18:43:00,
2013-05-11 14:48:00,58.3,44.5,29.77,SW,215,12.0,17.0,60,0.00,,---,0.00,VWS V14.01,2013-05-11 18:48:00,
2013-05-11 14:53:00,58.0,45.1,29.77,SSW,194,13.0,17.0,62,0.00,,---,0.00,VWS V14.01,2013-05-11 18:53:00,
2013-05-11 14:58:00,58.1,45.6,29.77,SW,214,6.0,17.0,63,0.00,,---,0.00,VWS V14.01,2013-05-11 18:58:00,
2013-05-11 15:03:00,58.6,45.6,29.77,SW,222,7.0,11.0,62,0.00,,---,0.00,VWS V14.01,2013-05-11 19:03:00,
2013-05-11 15:08:00,58.7,45.7,29.76,South,181,6.0,11.0,62,0.00,,---,0.00,VWS V14.01,2013-05-11 19:08:00,
2013-05-11 15:13:00,59.1,44.8,29.76,SW,234,8.0,15.0,59,0.00,,---,0.00,VWS V14.01,2013-05-11 19:13:00,
2013-05-11 15:18:00,59.0,43.8,29.76,SW,222,15.0,18.0,57,0.00,,---,0.00,VWS V14.01,2013-05-11 19:18:00,
2013-05-11 15:23:00,59.0,44.3,29.75,SW,232,6.0,18.0,58,0.00,,---,0.00,VWS V14.01,2013-05-11 19:23:00,
2013-05-11 15:28:00,58.8,45.0,29.74,South,177,5.0,18.0,60,0.00,,---,0.00,VWS V14.01,2013-05-11 19:28:00,